Main page
METAR-TAF:

METAR-TAF

Airports :

Oil platform

Heimdal, Norway

latitude: 59-34-12N, longitude: 2-13-48E, elevation: 10 m

Current weather observation

The report was made 36 minutes ago, at 10:50 UTC
Wind 17 kt from the South
Temperature 7°C
Humidity 93%
Pressure 994 hPa
Visibility 10 km or more
Scattered clouds at a height of 1000 ft
Overcast at a height of 1500 ft

METAR: ENHM 091050Z 19017KT 9999 SCT010 OVC015 07/06 Q0994 W08/S/

Time: 13:26 (11:26 UTC)

Forecast

The report was made 3 hours and 26 minutes ago, at 08:00 UTC
Forecast valid from 09 at 09 UTC to 09 at 17 UTC
Wind 18 kt from the South
Visibility 10 km or more
Few clouds at a height of 500 ft
Broken clouds at a height of 1000 ft
Temporary
from 09 at 09 UTC to 09 at 17 UTC
Visibility: 2000 m
Broken clouds at a height of 400 ft
mist

TAF: ENHM 090800Z 0909/0917 18018KT 9999 FEW005 BKN010 TEMPO 0909/0917 2000 BR BKN004

Weather observations and forecasts of more than 4000 airports (METAR and TAF reports).

The available stations are represented by yellow and red dots on the map.

Hover mouse over dot to see the name of the station.

Then click to see weather observations and forecasts.

To change the map : click on the green buttons with a black cross to zoom in, on the green button with a dash to zoom out, or on the green arrows for adjacent maps.


METAR-TAF: